Time;durP1;ratioP1;P1;durP2;ratioP2;P2;SDS_P1;SDS_P2;PMS_P1;PMS_P2;Temp;Humidity;BMP_temperature;BMP_pressure;BME280_temperature;BME280_humidity;BME280_pressure;Samples;Min_cycle;Max_cycle;Signal;HPM_P1;HPM_P2
2023/12/31 00:02:14;;;;;;;12.17;11.77;;;3.70;99.90;;;;;;5010463;28;20265;-88
2023/12/31 00:04:46;;;;;;;12.07;11.67;;;3.70;99.90;;;;;;5018885;28;20250;-90
2023/12/31 00:07:14;;;;;;;12.43;12.03;;;3.70;99.90;;;;;;5029101;28;20221;-89
2023/12/31 00:10:09;;;;;;;12.37;11.97;;;3.70;99.90;;;;;;5028539;28;20232;-89
2023/12/31 00:12:40;;;;;;;12.17;11.77;;;3.70;99.90;;;;;;5028559;28;20224;-89
2023/12/31 00:17:54;;;;;;;12.27;11.87;;;3.70;99.90;;;;;;5019232;28;20294;-89
2023/12/31 00:20:34;;;;;;;12.37;11.97;;;3.60;99.90;;;;;;5027965;28;20220;-88
2023/12/31 00:23:02;;;;;;;12.30;11.90;;;3.60;99.90;;;;;;5028686;28;20236;-88
2023/12/31 00:28:44;;;;;;;12.40;12.00;;;3.60;99.90;;;;;;5183678;27;20627;-88
2023/12/31 00:31:18;;;;;;;12.37;11.97;;;3.60;99.90;;;;;;5167015;27;20225;-88
2023/12/31 00:33:50;;;;;;;12.40;12.00;;;3.60;99.90;;;;;;5164374;27;20266;-88
2023/12/31 00:36:33;;;;;;;12.37;11.97;;;3.60;99.90;;;;;;5163563;27;20234;-88
2023/12/31 00:39:09;;;;;;;12.13;11.73;;;3.60;99.90;;;;;;5163994;27;20223;-88
2023/12/31 00:41:40;;;;;;;12.27;11.87;;;3.60;99.90;;;;;;5164722;27;20231;-88
2023/12/31 00:44:13;;;;;;;11.87;11.47;;;3.60;99.90;;;;;;5164317;27;20227;-88
2023/12/31 00:46:45;;;;;;;12.30;11.90;;;3.60;99.90;;;;;;5164027;27;20247;-88
2023/12/31 00:49:25;;;;;;;12.17;11.77;;;3.70;99.90;;;;;;5163936;27;20234;-88
2023/12/31 00:51:54;;;;;;;12.70;12.30;;;3.70;99.90;;;;;;5163535;27;20286;-88
2023/12/31 00:54:24;;;;;;;12.07;11.67;;;3.70;99.90;;;;;;5163576;27;20246;-88
2023/12/31 00:56:55;;;;;;;12.17;11.77;;;3.70;99.90;;;;;;5163484;27;20238;-89
2023/12/31 01:02:17;;;;;;;12.40;12.00;;;3.70;99.90;;;;;;5166416;27;20232;-89
2023/12/31 01:05:06;;;;;;;12.50;12.10;;;3.70;99.90;;;;;;5166475;27;20219;-90
2023/12/31 01:07:41;;;;;;;12.33;11.93;;;3.60;99.90;;;;;;5165491;27;20223;-90
2023/12/31 01:10:21;;;;;;;12.67;12.17;;;3.60;99.90;;;;;;5177164;27;20211;-91
2023/12/31 01:13:12;;;;;;;12.33;11.93;;;3.50;99.90;;;;;;5179020;27;20227;-89
2023/12/31 01:18:28;;;;;;;12.40;12.00;;;3.50;99.90;;;;;;5164118;27;20239;-89
2023/12/31 01:20:59;;;;;;;12.40;12.00;;;3.60;99.90;;;;;;5164587;27;20238;-89
2023/12/31 01:23:35;;;;;;;12.40;12.00;;;3.60;99.90;;;;;;5164647;27;20234;-90
2023/12/31 01:26:14;;;;;;;12.17;11.77;;;3.60;99.90;;;;;;5165594;27;20291;-90
2023/12/31 01:34:43;;;;;;;12.53;12.10;;;3.50;99.90;;;;;;5164409;27;20238;-89
2023/12/31 01:37:13;;;;;;;12.30;11.90;;;3.60;99.90;;;;;;5164437;27;20298;-90
2023/12/31 01:39:47;;;;;;;12.23;11.83;;;3.50;99.90;;;;;;5151707;27;20259;-89
2023/12/31 01:42:21;;;;;;;12.27;11.87;;;3.50;99.90;;;;;;5150847;27;20228;-90
2023/12/31 01:47:57;;;;;;;12.53;12.13;;;3.50;99.90;;;;;;5149934;27;20228;-89
2023/12/31 01:50:43;;;;;;;12.33;11.93;;;3.50;99.90;;;;;;5150401;27;20224;-90
2023/12/31 01:53:14;;;;;;;12.33;11.93;;;3.50;99.90;;;;;;5151739;27;20223;-90
2023/12/31 01:58:27;;;;;;;12.40;12.00;;;3.50;99.90;;;;;;5147479;27;20216;-89
2023/12/31 02:00:57;;;;;;;12.50;12.07;;;3.40;99.90;;;;;;5149036;27;20208;-90
2023/12/31 02:03:49;;;;;;;12.70;12.20;;;3.40;99.90;;;;;;5149850;27;20228;-90
2023/12/31 02:06:23;;;;;;;12.70;12.20;;;3.40;99.90;;;;;;5150411;27;20286;-90
2023/12/31 02:09:02;;;;;;;12.40;12.00;;;3.40;99.90;;;;;;5149158;27;20267;-90
2023/12/31 02:11:30;;;;;;;12.13;11.73;;;3.30;99.90;;;;;;5149361;27;20314;-89
2023/12/31 02:14:10;;;;;;;12.30;11.90;;;3.20;99.90;;;;;;5149645;27;20232;-90
2023/12/31 02:16:45;;;;;;;12.27;11.87;;;3.20;99.90;;;;;;5149084;27;20230;-90
2023/12/31 02:19:24;;;;;;;12.57;12.07;;;3.20;99.90;;;;;;5149988;27;20234;-90
2023/12/31 02:21:54;;;;;;;12.47;11.97;;;3.10;99.90;;;;;;5149058;27;20216;-90
2023/12/31 02:24:32;;;;;;;12.60;12.10;;;3.10;99.90;;;;;;5148964;27;20242;-90
2023/12/31 02:29:50;;;;;;;12.43;11.93;;;3.00;99.90;;;;;;5148710;27;20235;-89
2023/12/31 02:32:19;;;;;;;12.53;12.03;;;3.00;99.90;;;;;;5150244;27;20236;-89
2023/12/31 02:34:50;;;;;;;12.50;12.00;;;3.00;99.90;;;;;;5149902;27;20259;-90
2023/12/31 02:40:04;;;;;;;12.50;12.00;;;2.90;99.90;;;;;;5158382;27;20342;-89
2023/12/31 02:42:50;;;;;;;12.30;11.90;;;2.90;99.90;;;;;;5149928;27;20224;-90
2023/12/31 03:01:37;;;;;;;12.10;11.70;;;2.70;99.90;;;;;;6286679;22;20194;-88
2023/12/31 03:04:09;;;;;;;12.17;11.77;;;2.70;99.90;;;;;;6304253;22;20219;-89
2023/12/31 03:06:47;;;;;;;12.10;11.70;;;2.70;99.90;;;;;;6320099;22;20189;-89
2023/12/31 03:09:21;;;;;;;12.50;12.00;;;2.70;99.90;;;;;;6314103;22;20220;-89
2023/12/31 03:12:12;;;;;;;12.37;11.93;;;2.70;99.90;;;;;;6306880;22;20189;-89
2023/12/31 03:14:57;;;;;;;12.60;12.10;;;2.80;99.90;;;;;;6305111;22;20290;-89
2023/12/31 03:17:54;;;;;;;12.80;12.30;;;2.70;99.90;;;;;;6306532;22;20204;-89
2023/12/31 03:20:23;;;;;;;12.50;12.00;;;2.80;99.90;;;;;;6305935;22;20204;-89
2023/12/31 03:26:06;;;;;;;12.37;11.97;;;2.90;99.90;;;;;;6303733;22;20211;-89
2023/12/31 03:28:35;;;;;;;12.53;12.07;;;2.90;99.90;;;;;;6303475;22;20200;-89
2023/12/31 03:34:09;;;;;;;12.60;12.10;;;2.90;99.90;;;;;;6304001;22;20227;-89
2023/12/31 03:36:41;;;;;;;12.80;12.30;;;2.80;99.90;;;;;;6303996;22;20232;-89
2023/12/31 03:39:10;;;;;;;12.87;12.37;;;2.80;99.90;;;;;;6302925;22;20201;-89
2023/12/31 03:41:39;;;;;;;12.70;12.20;;;2.70;99.90;;;;;;6304047;22;20204;-89
2023/12/31 03:44:17;;;;;;;12.57;12.07;;;2.80;99.90;;;;;;6303326;22;20256;-88
2023/12/31 03:46:54;;;;;;;12.70;12.20;;;2.70;99.90;;;;;;6303657;22;20205;-88
2023/12/31 03:49:24;;;;;;;12.70;12.20;;;2.70;99.90;;;;;;6302969;22;20241;-89
2023/12/31 03:51:57;;;;;;;12.73;12.23;;;2.70;99.90;;;;;;6303254;22;20199;-89
2023/12/31 03:57:09;;;;;;;12.60;12.10;;;2.70;99.90;;;;;;6318792;22;20185;-88
2023/12/31 03:59:45;;;;;;;12.57;12.07;;;2.60;99.90;;;;;;6301399;22;20197;-89
2023/12/31 04:05:03;;;;;;;12.77;12.27;;;2.70;99.90;;;;;;6310589;22;20232;-89
2023/12/31 04:07:33;;;;;;;12.40;11.93;;;2.60;99.90;;;;;;6297139;22;20232;-89
2023/12/31 04:12:56;;;;;;;12.67;12.17;;;2.60;99.90;;;;;;6296527;22;20194;-89
2023/12/31 04:15:45;;;;;;;12.67;12.17;;;2.60;99.90;;;;;;6298764;22;20244;-89
2023/12/31 04:18:24;;;;;;;12.90;12.40;;;2.60;99.90;;;;;;6296998;22;20221;-89
2023/12/31 04:20:53;;;;;;;12.80;12.30;;;2.60;99.90;;;;;;6301067;22;20196;-88
2023/12/31 04:23:24;;;;;;;12.80;12.30;;;2.60;99.90;;;;;;6312502;22;20208;-87
2023/12/31 04:25:51;;;;;;;12.70;12.20;;;2.50;99.90;;;;;;6306195;22;20193;-89
2023/12/31 04:28:25;;;;;;;12.70;12.20;;;2.50;99.90;;;;;;6313405;22;20177;-88
2023/12/31 04:30:53;;;;;;;13.10;12.60;;;2.50;99.90;;;;;;6312689;22;20216;-89
2023/12/31 04:33:30;;;;;;;12.53;12.03;;;2.50;99.90;;;;;;6300063;22;20198;-89
2023/12/31 04:35:58;;;;;;;12.80;12.30;;;2.50;99.90;;;;;;6295841;22;20195;-89
2023/12/31 04:38:36;;;;;;;12.70;12.20;;;2.50;99.90;;;;;;6295450;22;20285;-89
2023/12/31 04:43:54;;;;;;;12.47;11.97;;;2.50;99.90;;;;;;6295578;22;20194;-89
2023/12/31 04:51:58;;;;;;;12.70;12.20;;;2.60;99.90;;;;;;6296503;22;20250;-89
2023/12/31 04:54:44;;;;;;;12.60;12.10;;;2.60;99.90;;;;;;6295874;22;20277;-89
2023/12/31 04:57:13;;;;;;;12.60;12.10;;;2.60;99.90;;;;;;6295805;22;20220;-89
2023/12/31 04:59:42;;;;;;;12.63;12.13;;;2.60;99.90;;;;;;6295050;22;20248;-89
2023/12/31 05:02:21;;;;;;;12.77;12.27;;;2.70;99.90;;;;;;6295286;22;20197;-90
2023/12/31 05:05:02;;;;;;;12.50;12.00;;;2.60;99.90;;;;;;6296690;22;20204;-89
2023/12/31 05:07:30;;;;;;;12.50;12.00;;;2.70;99.90;;;;;;6298712;22;20229;-89
2023/12/31 05:09:59;;;;;;;12.60;12.10;;;2.70;99.90;;;;;;6298068;22;20205;-89
2023/12/31 05:12:34;;;;;;;12.33;11.90;;;2.70;99.90;;;;;;6299321;22;20188;-89
2023/12/31 05:15:07;;;;;;;12.33;11.93;;;2.70;99.90;;;;;;6299010;22;20228;-89
2023/12/31 05:17:46;;;;;;;12.20;11.80;;;2.70;99.90;;;;;;6296599;22;20190;-89
2023/12/31 05:20:26;;;;;;;12.60;12.10;;;2.70;99.90;;;;;;6295149;22;20193;-90
2023/12/31 05:23:01;;;;;;;12.37;11.97;;;2.80;99.90;;;;;;6295938;22;20223;-88
2023/12/31 05:25:41;;;;;;;12.17;11.77;;;2.70;99.90;;;;;;6296226;22;20189;-90
2023/12/31 05:28:21;;;;;;;12.37;11.97;;;2.80;99.90;;;;;;6296425;22;20201;-90
2023/12/31 05:31:05;;;;;;;12.23;11.83;;;2.80;99.90;;;;;;6298353;22;20189;-90
2023/12/31 05:33:37;;;;;;;12.20;11.80;;;2.80;99.90;;;;;;6312126;22;20189;-89
2023/12/31 05:36:13;;;;;;;12.20;11.80;;;2.80;99.90;;;;;;6303692;22;20189;-89
2023/12/31 05:38:52;;;;;;;12.37;11.97;;;2.70;99.90;;;;;;6296112;22;20911;-89
2023/12/31 05:41:21;;;;;;;12.60;12.10;;;2.70;99.90;;;;;;6295718;22;20224;-89
2023/12/31 05:43:51;;;;;;;12.30;11.90;;;2.80;99.90;;;;;;6305820;22;20186;-90
2023/12/31 05:46:22;;;;;;;12.10;11.70;;;2.80;99.90;;;;;;6308263;22;20244;-89
2023/12/31 05:48:52;;;;;;;12.30;11.90;;;2.80;99.90;;;;;;6296365;22;20202;-89
2023/12/31 05:54:06;;;;;;;12.20;11.80;;;2.90;99.90;;;;;;6295183;22;20186;-89
2023/12/31 05:56:52;;;;;;;12.10;11.70;;;2.90;99.90;;;;;;6295428;22;20253;-90
2023/12/31 06:02:12;;;;;;;12.43;12.03;;;2.90;99.90;;;;;;6295999;22;20193;-90
2023/12/31 06:04:40;;;;;;;12.40;12.00;;;2.90;99.90;;;;;;6308972;22;20193;-90
2023/12/31 06:07:16;;;;;;;12.30;11.90;;;2.90;99.90;;;;;;6313039;22;20201;-89
2023/12/31 06:09:50;;;;;;;12.47;12.07;;;3.00;99.90;;;;;;6305779;22;20193;-90
2023/12/31 06:15:09;;;;;;;12.30;11.90;;;3.00;99.90;;;;;;6295609;22;20201;-90
2023/12/31 06:20:45;;;;;;;12.13;11.73;;;3.00;99.90;;;;;;6304726;22;20177;-88
2023/12/31 06:26:05;;;;;;;12.03;11.63;;;3.10;99.90;;;;;;6304165;22;20224;-90
2023/12/31 06:31:21;;;;;;;11.93;11.53;;;3.20;99.90;;;;;;6264625;22;20198;-90
2023/12/31 06:33:49;;;;;;;11.90;11.50;;;3.20;99.90;;;;;;6266209;22;20202;-90
2023/12/31 06:36:21;;;;;;;12.00;11.60;;;3.20;99.90;;;;;;6265718;22;20190;-90
2023/12/31 06:39:00;;;;;;;12.20;11.80;;;3.20;99.90;;;;;;6265488;22;20198;-90
2023/12/31 06:41:34;;;;;;;11.87;11.47;;;3.30;99.90;;;;;;6267097;22;20194;-90
2023/12/31 06:44:23;;;;;;;11.67;11.27;;;3.40;99.90;;;;;;6266465;22;20202;-90
2023/12/31 06:47:00;;;;;;;12.00;11.60;;;3.40;99.90;;;;;;6266786;22;20198;-90
2023/12/31 06:55:22;;;;;;;11.77;11.37;;;3.60;99.90;;;;;;6266148;22;20202;-90
2023/12/31 06:58:08;;;;;;;11.90;11.50;;;3.70;99.90;;;;;;6266226;22;20278;-90
2023/12/31 07:00:47;;;;;;;11.57;11.17;;;3.70;99.90;;;;;;6267890;22;20217;-90
2023/12/31 07:03:15;;;;;;;11.27;10.87;;;3.70;99.90;;;;;;6266448;22;20222;-89
2023/12/31 07:05:47;;;;;;;11.30;10.90;;;3.70;99.90;;;;;;6265339;22;20194;-89
2023/12/31 07:08:27;;;;;;;11.70;11.30;;;3.70;99.90;;;;;;6265480;22;20205;-90
2023/12/31 11:42:44;;;;;;;9.87;9.57;;;7.20;99.90;;;;;;6112317;23;20189;-91
2023/12/31 12:04:35;;;;;;;10.10;9.80;;;7.30;99.90;;;;;;6266740;22;20194;-90
2023/12/31 12:10:51;;;;;;;9.70;9.40;;;7.30;99.90;;;;;;6267439;22;20205;-92
2023/12/31 12:13:28;;;;;;;10.03;9.73;;;7.30;99.90;;;;;;6267664;22;20204;-89
2023/12/31 12:23:55;;;;;;;9.80;9.50;;;7.30;99.90;;;;;;6151929;22;20186;-91
2023/12/31 12:32:42;;;;;;;9.80;9.50;;;7.40;99.90;;;;;;6233098;22;20202;-90
2023/12/31 12:35:41;;;;;;;9.70;9.40;;;7.40;99.90;;;;;;6266383;22;20209;-90
2023/12/31 12:38:30;;;;;;;9.63;9.33;;;7.50;99.90;;;;;;6268211;22;20229;-90
2023/12/31 12:57:56;;;;;;;10.10;9.80;;;7.60;99.90;;;;;;6265659;22;20229;-87
2023/12/31 13:10:07;;;;;;;10.10;9.80;;;7.40;99.90;;;;;;6236322;23;20206;-90
2023/12/31 13:26:05;;;;;;;9.93;9.63;;;7.50;99.90;;;;;;6267906;22;20190;-90
2023/12/31 14:09:17;;;;;;;9.93;9.63;;;8.60;99.90;;;;;;6403698;22;20229;-88
2023/12/31 14:11:45;;;;;;;9.80;9.50;;;8.50;99.90;;;;;;6406575;22;20220;-86
2023/12/31 14:14:25;;;;;;;9.90;9.60;;;8.50;99.90;;;;;;6407268;22;20194;-88
2023/12/31 14:25:50;;;;;;;9.60;9.30;;;8.30;99.90;;;;;;6398057;22;20195;-92
2023/12/31 14:28:21;;;;;;;9.67;9.37;;;8.30;99.90;;;;;;6398743;22;20256;-90
2023/12/31 14:37:23;;;;;;;9.73;9.43;;;8.20;99.90;;;;;;5143738;27;20283;-89
2023/12/31 14:40:08;;;;;;;9.47;9.17;;;8.30;99.90;;;;;;5128788;27;20254;-91
2023/12/31 14:42:40;;;;;;;9.60;9.30;;;8.20;99.90;;;;;;5149022;27;20236;-90
2023/12/31 14:48:08;;;;;;;9.63;9.33;;;8.20;99.90;;;;;;5150695;27;20226;-90
2023/12/31 14:51:05;;;;;;;9.60;9.30;;;8.20;99.90;;;;;;5147758;27;20306;-89
2023/12/31 14:53:39;;;;;;;9.57;9.27;;;8.20;99.90;;;;;;5159763;27;20226;-89
2023/12/31 14:56:09;;;;;;;9.40;9.10;;;8.20;99.90;;;;;;5143345;27;20214;-87
2023/12/31 15:04:22;;;;;;;9.70;9.40;;;8.20;99.90;;;;;;5109375;28;20217;-87
2023/12/31 15:23:10;;;;;;;9.37;9.07;;;8.10;99.90;;;;;;5097050;28;20215;-86
2023/12/31 15:28:50;;;;;;;9.57;9.27;;;8.10;99.90;;;;;;5061647;28;20230;-90
2023/12/31 15:31:40;;;;;;;9.50;9.20;;;8.10;99.90;;;;;;5061188;28;20282;-90
2023/12/31 15:34:35;;;;;;;;;;;;;;;;;;;;;
2023/12/31 15:37:42;;;;;;;9.67;9.37;;;8.10;99.90;;;;;;5099839;28;20226;-90
2023/12/31 15:40:19;;;;;;;9.50;9.20;;;8.10;99.90;;;;;;5060893;28;20250;-90
2023/12/31 15:45:53;;;;;;;9.53;9.23;;;8.10;99.90;;;;;;5083579;28;20249;-89
2023/12/31 15:48:38;;;;;;;9.30;9.00;;;8.00;99.90;;;;;;5087803;28;20286;-90
2023/12/31 15:51:19;;;;;;;9.70;9.40;;;8.00;99.90;;;;;;5089111;28;20266;-90
2023/12/31 15:56:42;;;;;;;9.70;9.40;;;8.00;99.90;;;;;;5111589;22;20259;-89
2023/12/31 16:12:43;;;;;;;9.37;9.07;;;7.80;99.90;;;;;;5108092;28;20264;-89
2023/12/31 16:20:51;;;;;;;9.67;9.37;;;7.90;99.90;;;;;;5117834;27;20217;-86
2023/12/31 16:23:30;;;;;;;9.60;9.30;;;7.90;99.90;;;;;;5113045;28;20291;-89
2023/12/31 16:26:00;;;;;;;9.60;9.30;;;7.80;99.90;;;;;;5112388;28;20233;-88
2023/12/31 16:28:28;;;;;;;9.70;9.40;;;7.80;99.90;;;;;;5111709;28;20379;-88
2023/12/31 16:33:40;;;;;;;9.57;9.27;;;7.80;99.90;;;;;;5111911;28;20235;-89
2023/12/31 16:36:17;;;;;;;9.73;9.43;;;7.80;99.90;;;;;;5109621;28;20293;-92
2023/12/31 16:38:45;;;;;;;9.60;9.30;;;7.90;99.90;;;;;;5109436;28;20243;-89
2023/12/31 16:41:24;;;;;;;9.67;9.37;;;7.90;99.90;;;;;;5109566;28;20222;-88
2023/12/31 16:43:52;;;;;;;9.67;9.37;;;7.90;99.90;;;;;;5108545;28;20225;-89
2023/12/31 16:46:21;;;;;;;9.50;9.20;;;7.90;99.90;;;;;;5108077;28;20241;-89
2023/12/31 16:51:37;;;;;;;9.60;9.30;;;7.90;99.90;;;;;;5107530;28;20280;-89
2023/12/31 16:56:57;;;;;;;9.73;9.43;;;7.90;99.90;;;;;;5109559;28;20401;-89
2023/12/31 16:59:26;;;;;;;9.50;9.20;;;8.00;99.90;;;;;;5109689;28;20232;-89
2023/12/31 17:01:54;;;;;;;9.40;9.10;;;8.00;99.90;;;;;;5109419;28;20239;-89
2023/12/31 17:04:42;;;;;;;9.70;9.40;;;8.00;99.90;;;;;;5109023;28;20234;-89
2023/12/31 17:07:10;;;;;;;9.60;9.30;;;8.00;99.90;;;;;;5109472;28;20241;-90
2023/12/31 17:09:39;;;;;;;9.70;9.40;;;7.90;99.90;;;;;;5108176;28;20230;-89
2023/12/31 17:12:11;;;;;;;9.60;9.30;;;7.90;99.90;;;;;;5110062;28;20227;-88
2023/12/31 17:14:41;;;;;;;9.70;9.40;;;7.80;99.90;;;;;;5151269;22;20585;-91
2023/12/31 17:23:10;;;;;;;9.93;9.63;;;7.60;99.90;;;;;;5108245;28;20217;-90
2023/12/31 17:25:40;;;;;;;9.90;9.60;;;7.60;99.90;;;;;;5109056;28;20235;-90
2023/12/31 17:28:09;;;;;;;10.00;9.70;;;7.50;99.90;;;;;;5155510;22;20214;-90
2023/12/31 17:30:40;;;;;;;9.90;9.60;;;7.50;99.90;;;;;;5100186;27;20241;-90
2023/12/31 17:39:18;;;;;;;10.10;9.80;;;7.40;99.90;;;;;;5088104;28;20214;-89
2023/12/31 17:41:57;;;;;;;10.17;9.87;;;7.40;99.90;;;;;;5092319;28;20221;-90
2023/12/31 17:44:26;;;;;;;10.00;9.70;;;7.40;99.90;;;;;;5091808;28;20237;-90
2023/12/31 17:56:09;;;;;;;10.13;9.83;;;7.30;99.90;;;;;;5007677;28;20292;-90
2023/12/31 17:58:36;;;;;;;10.20;9.90;;;7.30;99.90;;;;;;5122672;22;20237;-83
2023/12/31 18:01:04;;;;;;;10.30;10.00;;;7.30;99.90;;;;;;5086730;28;20226;-82
2023/12/31 18:03:32;;;;;;;10.20;9.90;;;7.30;99.90;;;;;;5086942;28;20298;-83
2023/12/31 18:05:59;;;;;;;10.40;10.10;;;7.30;99.90;;;;;;5086994;28;20230;-83
2023/12/31 18:08:28;;;;;;;10.50;10.20;;;7.30;99.90;;;;;;5083727;28;20392;-84
2023/12/31 18:10:57;;;;;;;10.23;9.93;;;7.30;99.90;;;;;;5083156;28;20274;-85
2023/12/31 18:13:25;;;;;;;10.07;9.77;;;7.30;99.90;;;;;;5083850;28;20229;-84
2023/12/31 18:15:57;;;;;;;10.07;9.77;;;7.30;99.90;;;;;;5086117;28;20230;-83
2023/12/31 18:19:10;;;;;;;10.10;9.80;;;7.30;99.90;;;;;;5084738;28;20233;-85
2023/12/31 18:21:38;;;;;;;10.10;9.80;;;7.30;99.90;;;;;;5076832;28;20219;-83
2023/12/31 18:24:07;;;;;;;10.30;10.00;;;7.20;99.90;;;;;;5085828;28;20234;-85
2023/12/31 18:26:35;;;;;;;10.13;9.83;;;7.30;99.90;;;;;;5084021;28;20308;-84
2023/12/31 18:29:06;;;;;;;10.50;10.20;;;7.20;99.90;;;;;;5082796;28;20276;-83
2023/12/31 18:31:33;;;;;;;10.40;10.10;;;7.20;99.90;;;;;;5081832;28;20226;-80
2023/12/31 18:34:01;;;;;;;10.27;9.97;;;7.20;99.90;;;;;;5082897;28;20253;-80
2023/12/31 18:36:28;;;;;;;10.30;10.00;;;7.20;99.90;;;;;;5083513;28;20226;-80
2023/12/31 18:39:08;;;;;;;10.30;10.00;;;7.20;99.90;;;;;;5082986;28;20238;-84
2023/12/31 18:41:35;;;;;;;10.10;9.80;;;7.20;99.90;;;;;;5083362;28;20226;-80
2023/12/31 18:44:03;;;;;;;9.90;9.60;;;7.30;99.90;;;;;;5081439;28;20228;-79
2023/12/31 18:46:31;;;;;;;10.33;10.03;;;7.30;99.90;;;;;;5083073;28;20232;-80
2023/12/31 18:48:58;;;;;;;9.97;9.67;;;7.30;99.90;;;;;;5081611;28;20226;-81
2023/12/31 18:51:28;;;;;;;10.20;9.90;;;7.30;99.90;;;;;;5082553;28;20230;-80
2023/12/31 18:53:57;;;;;;;10.10;9.80;;;7.40;99.90;;;;;;5082655;28;20303;-81
2023/12/31 18:56:26;;;;;;;10.00;9.70;;;7.40;99.90;;;;;;5082296;28;20226;-80
2023/12/31 18:58:53;;;;;;;10.23;9.93;;;7.40;99.90;;;;;;5082283;28;20296;-80
2023/12/31 19:01:21;;;;;;;10.00;9.70;;;7.40;99.90;;;;;;5083423;28;20280;-80
2023/12/31 19:03:48;;;;;;;10.17;9.87;;;7.40;99.90;;;;;;5081777;28;20234;-80
2023/12/31 19:06:16;;;;;;;10.10;9.80;;;7.40;99.90;;;;;;5081994;28;20261;-79
2023/12/31 19:08:43;;;;;;;10.30;10.00;;;7.40;99.90;;;;;;5083090;28;20279;-80
2023/12/31 19:11:10;;;;;;;10.10;9.80;;;7.40;99.90;;;;;;5083023;28;20230;-80
2023/12/31 19:13:39;;;;;;;10.10;9.80;;;7.30;99.90;;;;;;5083084;28;20242;-81
2023/12/31 19:16:07;;;;;;;10.00;9.70;;;7.30;99.90;;;;;;5083084;28;20244;-80
2023/12/31 19:18:34;;;;;;;9.90;9.60;;;7.30;99.90;;;;;;5081588;28;20289;-80
2023/12/31 19:21:02;;;;;;;10.20;9.90;;;7.30;99.90;;;;;;5085241;28;20230;-81
2023/12/31 19:23:29;;;;;;;10.20;9.90;;;7.20;99.90;;;;;;5085867;28;20230;-80
2023/12/31 19:25:57;;;;;;;10.13;9.83;;;7.20;99.90;;;;;;5085982;28;20230;-81
2023/12/31 19:28:25;;;;;;;10.20;9.90;;;7.20;99.90;;;;;;5084959;28;20284;-80
2023/12/31 19:30:54;;;;;;;10.00;9.70;;;7.20;99.90;;;;;;5085602;28;20237;-80
2023/12/31 19:33:22;;;;;;;10.10;9.80;;;7.20;99.90;;;;;;5085123;28;20237;-82
2023/12/31 19:35:49;;;;;;;9.90;9.60;;;7.20;99.90;;;;;;5085484;28;20234;-80
2023/12/31 19:38:16;;;;;;;10.20;9.90;;;7.20;99.90;;;;;;5084910;28;20234;-81
2023/12/31 19:40:44;;;;;;;10.00;9.70;;;7.20;99.90;;;;;;5085465;28;20230;-81
2023/12/31 19:43:11;;;;;;;10.10;9.80;;;7.20;99.90;;;;;;5085414;28;20234;-80
2023/12/31 19:45:38;;;;;;;9.83;9.53;;;7.20;99.90;;;;;;5085642;28;20222;-80
2023/12/31 19:48:08;;;;;;;10.00;9.70;;;7.20;99.90;;;;;;5084216;28;20288;-80
2023/12/31 19:50:36;;;;;;;10.07;9.77;;;7.20;99.90;;;;;;5085277;28;20236;-80
2023/12/31 19:53:03;;;;;;;10.40;10.10;;;7.20;99.90;;;;;;5085949;28;20237;-80
2023/12/31 19:55:30;;;;;;;10.00;9.70;;;7.20;99.90;;;;;;5085372;28;20230;-80
2023/12/31 19:57:59;;;;;;;10.43;10.13;;;7.20;99.90;;;;;;5083603;28;20241;-80
2023/12/31 20:00:27;;;;;;;10.37;10.07;;;7.20;99.90;;;;;;5085629;28;20226;-79
2023/12/31 20:02:54;;;;;;;10.00;9.70;;;7.20;99.90;;;;;;5085414;28;20284;-80
2023/12/31 20:05:23;;;;;;;10.10;9.80;;;7.10;99.90;;;;;;5085239;28;20252;-81
2023/12/31 20:07:50;;;;;;;9.90;9.60;;;7.10;99.90;;;;;;5089580;28;20226;-80
2023/12/31 20:10:32;;;;;;;10.00;9.70;;;7.10;99.90;;;;;;5091324;28;20222;-80
2023/12/31 20:12:59;;;;;;;10.00;9.70;;;7.10;99.90;;;;;;5091058;28;20261;-80
2023/12/31 20:15:26;;;;;;;10.10;9.80;;;7.10;99.90;;;;;;5090886;28;20234;-81
2023/12/31 20:17:55;;;;;;;10.10;9.80;;;7.00;99.90;;;;;;5090292;28;20238;-79
2023/12/31 20:20:24;;;;;;;9.90;9.60;;;7.00;99.90;;;;;;5085442;28;20234;-80
2023/12/31 20:22:52;;;;;;;10.30;10.00;;;6.90;99.90;;;;;;5085203;28;20231;-79
2023/12/31 20:25:19;;;;;;;10.23;9.93;;;6.90;99.90;;;;;;5084499;28;20312;-80
2023/12/31 20:27:47;;;;;;;10.10;9.80;;;6.80;99.90;;;;;;5085059;28;20249;-80
2023/12/31 20:30:15;;;;;;;10.10;9.80;;;6.80;99.90;;;;;;5084104;28;20222;-81
2023/12/31 20:32:43;;;;;;;10.23;9.93;;;6.80;99.90;;;;;;5085457;28;20291;-80
2023/12/31 20:35:12;;;;;;;9.97;9.67;;;6.80;99.90;;;;;;5085145;28;20292;-81
2023/12/31 20:37:41;;;;;;;10.17;9.87;;;6.80;99.90;;;;;;5084636;28;20272;-81
2023/12/31 20:40:10;;;;;;;10.20;9.90;;;6.80;99.90;;;;;;5084162;28;20222;-82
2023/12/31 20:42:40;;;;;;;10.00;9.70;;;6.80;99.90;;;;;;5084984;28;20226;-82
2023/12/31 20:45:10;;;;;;;10.03;9.73;;;6.80;99.90;;;;;;5085273;28;20268;-80
2023/12/31 20:47:38;;;;;;;10.10;9.80;;;6.80;99.90;;;;;;5085223;28;20290;-81
2023/12/31 20:50:07;;;;;;;10.03;9.73;;;6.70;99.90;;;;;;5085185;28;20237;-81
2023/12/31 20:52:34;;;;;;;10.30;10.00;;;6.70;99.90;;;;;;5085383;28;20284;-80
2023/12/31 20:55:04;;;;;;;10.00;9.70;;;6.70;99.90;;;;;;5086793;28;20234;-81
2023/12/31 20:57:31;;;;;;;9.90;9.60;;;6.60;99.90;;;;;;5084495;28;20248;-80
2023/12/31 20:59:58;;;;;;;10.17;9.87;;;6.60;99.90;;;;;;5084902;28;20218;-80
2023/12/31 21:02:26;;;;;;;10.00;9.70;;;6.60;99.90;;;;;;5084726;28;20222;-80
2023/12/31 21:04:53;;;;;;;10.30;10.00;;;6.60;99.90;;;;;;5084077;28;20264;-80
2023/12/31 21:07:20;;;;;;;10.07;9.77;;;6.60;99.90;;;;;;5083941;28;20236;-80
2023/12/31 21:09:48;;;;;;;10.20;9.90;;;6.60;99.90;;;;;;5083975;28;20242;-80
2023/12/31 21:12:17;;;;;;;10.23;9.93;;;6.60;99.90;;;;;;5083985;28;20226;-81
2023/12/31 21:14:45;;;;;;;10.17;9.87;;;6.60;99.90;;;;;;5084630;28;20234;-80
2023/12/31 21:17:12;;;;;;;10.00;9.70;;;6.50;99.90;;;;;;5084240;28;20268;-81
2023/12/31 21:19:39;;;;;;;10.00;9.70;;;6.50;99.90;;;;;;5083922;28;20234;-80
2023/12/31 21:22:07;;;;;;;10.30;10.00;;;6.50;99.90;;;;;;5084834;28;20232;-82
2023/12/31 21:24:35;;;;;;;10.30;10.00;;;6.40;99.90;;;;;;5084811;28;20241;-80
2023/12/31 21:27:02;;;;;;;10.40;10.10;;;6.30;99.90;;;;;;5084646;28;20226;-80
2023/12/31 21:29:35;;;;;;;10.30;10.00;;;6.30;99.90;;;;;;5084112;28;20226;-81
2023/12/31 21:32:02;;;;;;;10.40;10.10;;;6.20;99.90;;;;;;5084590;28;20230;-81
2023/12/31 21:34:30;;;;;;;10.20;9.90;;;6.20;99.90;;;;;;5083891;28;20303;-80
2023/12/31 21:36:57;;;;;;;10.43;10.13;;;6.20;99.90;;;;;;5084139;28;20226;-80
2023/12/31 21:39:25;;;;;;;10.63;10.33;;;6.20;99.90;;;;;;5083623;28;20218;-81
2023/12/31 21:41:52;;;;;;;10.33;10.03;;;6.20;99.90;;;;;;5083035;28;20234;-80
2023/12/31 21:44:19;;;;;;;10.43;10.13;;;6.20;99.90;;;;;;5084164;28;20241;-80
2023/12/31 21:46:48;;;;;;;10.40;10.10;;;6.10;99.90;;;;;;5083421;28;20222;-81
2023/12/31 21:49:18;;;;;;;10.40;10.10;;;6.10;99.90;;;;;;5083833;28;20226;-80
2023/12/31 21:51:45;;;;;;;10.40;10.10;;;6.10;99.90;;;;;;5083911;28;20253;-81
2023/12/31 21:54:13;;;;;;;10.43;10.13;;;6.10;99.90;;;;;;5084620;28;20230;-81
2023/12/31 21:56:42;;;;;;;10.57;10.27;;;6.10;99.90;;;;;;5085545;28;20230;-80
2023/12/31 21:59:09;;;;;;;10.30;10.00;;;6.10;99.90;;;;;;5084166;28;20218;-81
2023/12/31 22:01:37;;;;;;;10.47;10.17;;;6.00;99.90;;;;;;5083809;28;20236;-81
2023/12/31 22:04:06;;;;;;;10.50;10.20;;;6.00;99.90;;;;;;5083589;28;20230;-81
2023/12/31 22:06:34;;;;;;;10.50;10.20;;;6.00;99.90;;;;;;5083559;28;20232;-80
2023/12/31 22:09:01;;;;;;;10.43;10.13;;;5.90;99.90;;;;;;5083649;28;20230;-80
2023/12/31 22:11:29;;;;;;;10.47;10.17;;;5.90;99.90;;;;;;5083509;28;20329;-81
2023/12/31 22:13:56;;;;;;;10.60;10.30;;;5.90;99.90;;;;;;5083856;28;20238;-81
2023/12/31 22:16:23;;;;;;;10.70;10.40;;;5.90;99.90;;;;;;5083504;28;20273;-80
2023/12/31 22:18:51;;;;;;;10.70;10.40;;;5.90;99.90;;;;;;5084521;28;20234;-81
2023/12/31 22:21:20;;;;;;;10.70;10.40;;;5.80;99.90;;;;;;5088831;28;20234;-80
2023/12/31 22:23:48;;;;;;;10.70;10.40;;;5.80;99.90;;;;;;5084605;28;20237;-81
2023/12/31 22:26:15;;;;;;;10.60;10.30;;;5.80;99.90;;;;;;5083630;28;20234;-80
2023/12/31 22:28:43;;;;;;;10.70;10.40;;;5.70;99.90;;;;;;5083771;28;20240;-81
2023/12/31 22:31:10;;;;;;;10.57;10.27;;;5.70;99.90;;;;;;5083769;28;20226;-81
2023/12/31 22:33:38;;;;;;;10.60;10.30;;;5.70;99.90;;;;;;5086415;28;20229;-81
2023/12/31 22:36:06;;;;;;;10.50;10.20;;;5.70;99.90;;;;;;5088936;28;20270;-82
2023/12/31 22:38:35;;;;;;;10.80;10.50;;;5.70;99.90;;;;;;5088229;28;20215;-81
2023/12/31 22:41:03;;;;;;;10.60;10.30;;;5.70;99.90;;;;;;5086457;28;20234;-81
2023/12/31 22:43:30;;;;;;;10.60;10.30;;;5.60;99.90;;;;;;5084190;28;20222;-81
2023/12/31 22:45:57;;;;;;;10.60;10.30;;;5.60;99.90;;;;;;5087595;28;20313;-80
2023/12/31 22:48:25;;;;;;;10.60;10.30;;;5.60;99.90;;;;;;5084148;28;20226;-81